sensor_id;sensor_type;location;lat;lon;timestamp;P1;durP1;ratioP1;P2;durP2;ratioP2
52102;SDS011;38101;53.126;6.878;2022-09-09T00:12:11;13.27;;;9.35;;
52102;SDS011;38101;53.126;6.878;2022-09-09T00:15:13;13.07;;;9.30;;
52102;SDS011;38101;53.126;6.878;2022-09-09T00:20:32;13.85;;;10.18;;
52102;SDS011;38101;53.126;6.878;2022-09-09T00:25:52;15.40;;;10.68;;
52102;SDS011;38101;53.126;6.878;2022-09-09T00:28:41;12.35;;;9.43;;
52102;SDS011;38101;53.126;6.878;2022-09-09T00:31:16;13.38;;;9.18;;
52102;SDS011;38101;53.126;6.878;2022-09-09T00:33:47;14.27;;;9.30;;
52102;SDS011;38101;53.126;6.878;2022-09-09T00:36:17;15.00;;;9.25;;
52102;SDS011;38101;53.126;6.878;2022-09-09T00:38:49;13.30;;;8.90;;
52102;SDS011;38101;53.126;6.878;2022-09-09T00:41:30;12.20;;;8.07;;
52102;SDS011;38101;53.126;6.878;2022-09-09T00:44:03;10.55;;;8.57;;
52102;SDS011;38101;53.126;6.878;2022-09-09T00:46:58;11.02;;;7.55;;
52102;SDS011;38101;53.126;6.878;2022-09-09T00:52:45;13.40;;;8.15;;
52102;SDS011;38101;53.126;6.878;2022-09-09T00:55:39;13.48;;;8.23;;
52102;SDS011;38101;53.126;6.878;2022-09-09T00:58:15;11.57;;;7.78;;
52102;SDS011;38101;53.126;6.878;2022-09-09T06:35:55;8.93;;;6.07;;
52102;SDS011;38101;53.126;6.878;2022-09-09T06:38:22;7.65;;;5.40;;
52102;SDS011;38101;53.126;6.878;2022-09-09T06:40:52;8.40;;;6.07;;
52102;SDS011;38101;53.126;6.878;2022-09-09T06:43:20;7.13;;;5.30;;
52102;SDS011;38101;53.126;6.878;2022-09-09T06:45:52;8.85;;;5.95;;
52102;SDS011;38101;53.126;6.878;2022-09-09T06:48:19;7.90;;;5.43;;
52102;SDS011;38101;53.126;6.878;2022-09-09T06:50:45;7.90;;;5.78;;
52102;SDS011;38101;53.126;6.878;2022-09-09T06:53:11;7.25;;;5.50;;
52102;SDS011;38101;53.126;6.878;2022-09-09T06:55:36;8.65;;;5.65;;
52102;SDS011;38101;53.126;6.878;2022-09-09T06:58:05;9.55;;;5.82;;
52102;SDS011;38101;53.126;6.878;2022-09-09T07:00:33;9.73;;;5.60;;
52102;SDS011;38101;53.126;6.878;2022-09-09T07:02:59;8.40;;;5.60;;
52102;SDS011;38101;53.126;6.878;2022-09-09T07:05:25;9.00;;;6.25;;
52102;SDS011;38101;53.126;6.878;2022-09-09T07:07:51;10.10;;;6.30;;
52102;SDS011;38101;53.126;6.878;2022-09-09T07:10:17;9.80;;;6.35;;
52102;SDS011;38101;53.126;6.878;2022-09-09T07:12:43;9.32;;;6.30;;
52102;SDS011;38101;53.126;6.878;2022-09-09T07:15:09;8.55;;;5.45;;
52102;SDS011;38101;53.126;6.878;2022-09-09T07:17:35;8.75;;;5.65;;
52102;SDS011;38101;53.126;6.878;2022-09-09T07:20:01;9.55;;;5.97;;
52102;SDS011;38101;53.126;6.878;2022-09-09T07:22:29;10.73;;;6.20;;
52102;SDS011;38101;53.126;6.878;2022-09-09T07:24:54;11.40;;;6.20;;
52102;SDS011;38101;53.126;6.878;2022-09-09T07:27:20;9.85;;;6.57;;
52102;SDS011;38101;53.126;6.878;2022-09-09T07:29:46;8.38;;;5.78;;
52102;SDS011;38101;53.126;6.878;2022-09-09T07:32:11;9.45;;;5.75;;
52102;SDS011;38101;53.126;6.878;2022-09-09T07:34:37;9.80;;;5.07;;
52102;SDS011;38101;53.126;6.878;2022-09-09T07:37:03;9.75;;;5.50;;
52102;SDS011;38101;53.126;6.878;2022-09-09T07:39:28;6.40;;;5.10;;
52102;SDS011;38101;53.126;6.878;2022-09-09T07:41:54;8.40;;;5.65;;
52102;SDS011;38101;53.126;6.878;2022-09-09T07:44:21;9.55;;;5.53;;
52102;SDS011;38101;53.126;6.878;2022-09-09T07:46:48;6.13;;;4.70;;
52102;SDS011;38101;53.126;6.878;2022-09-09T07:49:14;7.38;;;5.28;;
52102;SDS011;38101;53.126;6.878;2022-09-09T07:51:41;8.75;;;5.47;;
52102;SDS011;38101;53.126;6.878;2022-09-09T07:54:12;9.73;;;5.15;;
52102;SDS011;38101;53.126;6.878;2022-09-09T07:56:40;8.30;;;5.05;;
52102;SDS011;38101;53.126;6.878;2022-09-09T07:59:06;8.88;;;5.35;;
52102;SDS011;38101;53.126;6.878;2022-09-09T08:01:40;7.05;;;5.07;;
52102;SDS011;38101;53.126;6.878;2022-09-09T08:04:15;9.05;;;5.13;;
52102;SDS011;38101;53.126;6.878;2022-09-09T08:06:43;7.32;;;4.97;;
52102;SDS011;38101;53.126;6.878;2022-09-09T08:09:14;6.78;;;5.03;;
52102;SDS011;38101;53.126;6.878;2022-09-09T08:11:40;10.45;;;5.07;;
52102;SDS011;38101;53.126;6.878;2022-09-09T08:14:07;8.00;;;5.07;;
52102;SDS011;38101;53.126;6.878;2022-09-09T08:16:35;7.90;;;5.00;;
52102;SDS011;38101;53.126;6.878;2022-09-09T08:19:09;8.55;;;4.97;;
52102;SDS011;38101;53.126;6.878;2022-09-09T08:21:35;7.22;;;4.38;;
52102;SDS011;38101;53.126;6.878;2022-09-09T08:24:03;9.95;;;4.90;;
52102;SDS011;38101;53.126;6.878;2022-09-09T08:26:40;7.30;;;4.88;;
52102;SDS011;38101;53.126;6.878;2022-09-09T08:29:07;7.47;;;4.80;;
52102;SDS011;38101;53.126;6.878;2022-09-09T08:31:36;8.48;;;5.00;;
52102;SDS011;38101;53.126;6.878;2022-09-09T08:34:03;6.70;;;5.05;;
52102;SDS011;38101;53.126;6.878;2022-09-09T08:36:32;9.48;;;4.90;;
52102;SDS011;38101;53.126;6.878;2022-09-09T08:39:00;8.30;;;4.60;;
52102;SDS011;38101;53.126;6.878;2022-09-09T08:47:38;5.90;;;4.68;;
52102;SDS011;38101;53.126;6.878;2022-09-09T08:52:39;8.93;;;4.95;;
52102;SDS011;38101;53.126;6.878;2022-09-09T08:57:47;7.53;;;4.97;;
52102;SDS011;38101;53.126;6.878;2022-09-09T09:00:19;8.13;;;5.25;;
52102;SDS011;38101;53.126;6.878;2022-09-09T09:02:53;6.95;;;5.22;;
52102;SDS011;38101;53.126;6.878;2022-09-09T09:11:03;7.13;;;4.72;;
52102;SDS011;38101;53.126;6.878;2022-09-09T09:16:41;7.13;;;4.40;;
52102;SDS011;38101;53.126;6.878;2022-09-09T09:18:59;7.65;;;4.60;;
52102;SDS011;38101;53.126;6.878;2022-09-09T09:21:42;7.18;;;4.47;;
52102;SDS011;38101;53.126;6.878;2022-09-09T09:26:45;8.27;;;4.18;;
52102;SDS011;38101;53.126;6.878;2022-09-09T09:29:13;6.53;;;4.13;;
52102;SDS011;38101;53.126;6.878;2022-09-09T09:31:44;5.45;;;3.90;;
52102;SDS011;38101;53.126;6.878;2022-09-09T09:34:14;6.50;;;4.00;;
52102;SDS011;38101;53.126;6.878;2022-09-09T09:36:41;7.88;;;4.03;;
52102;SDS011;38101;53.126;6.878;2022-09-09T09:39:21;6.30;;;3.67;;
52102;SDS011;38101;53.126;6.878;2022-09-09T09:41:48;7.82;;;3.90;;
52102;SDS011;38101;53.126;6.878;2022-09-09T09:44:22;8.13;;;3.65;;
52102;SDS011;38101;53.126;6.878;2022-09-09T09:46:51;6.93;;;3.90;;
52102;SDS011;38101;53.126;6.878;2022-09-09T09:49:17;7.85;;;4.07;;
52102;SDS011;38101;53.126;6.878;2022-09-09T09:51:43;7.18;;;3.95;;
52102;SDS011;38101;53.126;6.878;2022-09-09T09:56:38;8.48;;;4.57;;
52102;SDS011;38101;53.126;6.878;2022-09-09T09:59:05;7.78;;;4.40;;
52102;SDS011;38101;53.126;6.878;2022-09-09T10:01:32;7.43;;;4.03;;
52102;SDS011;38101;53.126;6.878;2022-09-09T10:03:59;7.60;;;4.35;;
52102;SDS011;38101;53.126;6.878;2022-09-09T10:06:31;8.43;;;3.83;;
52102;SDS011;38101;53.126;6.878;2022-09-09T10:08:58;8.20;;;3.70;;
52102;SDS011;38101;53.126;6.878;2022-09-09T10:11:30;7.68;;;4.20;;
52102;SDS011;38101;53.126;6.878;2022-09-09T10:14:30;10.45;;;4.28;;
52102;SDS011;38101;53.126;6.878;2022-09-09T10:17:19;7.05;;;3.70;;
52102;SDS011;38101;53.126;6.878;2022-09-09T10:22:44;14.75;;;3.80;;
52102;SDS011;38101;53.126;6.878;2022-09-09T10:25:27;7.70;;;3.58;;
52102;SDS011;38101;53.126;6.878;2022-09-09T10:33:37;8.43;;;3.88;;
52102;SDS011;38101;53.126;6.878;2022-09-09T10:36:21;8.40;;;3.40;;
52102;SDS011;38101;53.126;6.878;2022-09-09T10:38:54;8.02;;;3.20;;
52102;SDS011;38101;53.126;6.878;2022-09-09T10:50:06;5.75;;;3.22;;
52102;SDS011;38101;53.126;6.878;2022-09-09T10:52:49;6.43;;;3.30;;
52102;SDS011;38101;53.126;6.878;2022-09-09T10:55:38;9.55;;;3.38;;
52102;SDS011;38101;53.126;6.878;2022-09-09T10:58:13;7.93;;;2.83;;
52102;SDS011;38101;53.126;6.878;2022-09-09T11:00:49;6.65;;;2.78;;
52102;SDS011;38101;53.126;6.878;2022-09-09T11:03:20;6.03;;;2.78;;
52102;SDS011;38101;53.126;6.878;2022-09-09T11:05:51;6.53;;;2.55;;
52102;SDS011;38101;53.126;6.878;2022-09-09T11:08:23;6.50;;;2.53;;
52102;SDS011;38101;53.126;6.878;2022-09-09T11:10:53;4.72;;;2.53;;
52102;SDS011;38101;53.126;6.878;2022-09-09T11:18:35;4.50;;;2.40;;
52102;SDS011;38101;53.126;6.878;2022-09-09T11:21:05;7.93;;;2.67;;
52102;SDS011;38101;53.126;6.878;2022-09-09T11:23:40;7.15;;;2.50;;
52102;SDS011;38101;53.126;6.878;2022-09-09T11:26:16;5.68;;;2.47;;
52102;SDS011;38101;53.126;6.878;2022-09-09T11:28:59;4.90;;;2.10;;
52102;SDS011;38101;53.126;6.878;2022-09-09T11:34:53;5.60;;;2.42;;
52102;SDS011;38101;53.126;6.878;2022-09-09T11:40:15;7.97;;;2.65;;
52102;SDS011;38101;53.126;6.878;2022-09-09T11:42:48;6.88;;;2.70;;
52102;SDS011;38101;53.126;6.878;2022-09-09T11:45:22;6.88;;;2.53;;
52102;SDS011;38101;53.126;6.878;2022-09-09T11:48:21;8.02;;;2.92;;
52102;SDS011;38101;53.126;6.878;2022-09-09T11:53:51;6.82;;;3.00;;
52102;SDS011;38101;53.126;6.878;2022-09-09T11:56:27;4.45;;;2.25;;
52102;SDS011;38101;53.126;6.878;2022-09-09T11:59:03;5.55;;;2.50;;
52102;SDS011;38101;53.126;6.878;2022-09-09T12:01:36;5.95;;;2.58;;
52102;SDS011;38101;53.126;6.878;2022-09-09T12:06:41;6.20;;;2.40;;
52102;SDS011;38101;53.126;6.878;2022-09-09T12:09:44;5.60;;;2.53;;
52102;SDS011;38101;53.126;6.878;2022-09-09T12:17:19;5.85;;;2.53;;
52102;SDS011;38101;53.126;6.878;2022-09-09T12:19:47;6.30;;;2.13;;
52102;SDS011;38101;53.126;6.878;2022-09-09T12:33:34;5.22;;;2.13;;
52102;SDS011;38101;53.126;6.878;2022-09-09T12:36:02;4.80;;;2.05;;
52102;SDS011;38101;53.126;6.878;2022-09-09T12:38:36;5.25;;;2.25;;
52102;SDS011;38101;53.126;6.878;2022-09-09T12:41:04;7.43;;;2.10;;
52102;SDS011;38101;53.126;6.878;2022-09-09T12:43:30;4.35;;;1.95;;
52102;SDS011;38101;53.126;6.878;2022-09-09T12:46:00;5.90;;;2.25;;
52102;SDS011;38101;53.126;6.878;2022-09-09T12:51:05;4.82;;;2.10;;
52102;SDS011;38101;53.126;6.878;2022-09-09T12:53:41;6.38;;;2.10;;
52102;SDS011;38101;53.126;6.878;2022-09-09T12:56:08;6.15;;;2.40;;
52102;SDS011;38101;53.126;6.878;2022-09-09T12:58:44;4.45;;;2.13;;
52102;SDS011;38101;53.126;6.878;2022-09-09T13:01:18;3.92;;;2.13;;
52102;SDS011;38101;53.126;6.878;2022-09-09T13:03:52;4.32;;;2.05;;
52102;SDS011;38101;53.126;6.878;2022-09-09T13:06:24;3.72;;;1.90;;
52102;SDS011;38101;53.126;6.878;2022-09-09T13:08:52;4.40;;;1.83;;
52102;SDS011;38101;53.126;6.878;2022-09-09T13:13:54;4.47;;;2.25;;
52102;SDS011;38101;53.126;6.878;2022-09-09T13:16:28;4.22;;;1.95;;
52102;SDS011;38101;53.126;6.878;2022-09-09T13:19:06;4.95;;;1.92;;
52102;SDS011;38101;53.126;6.878;2022-09-09T13:21:38;3.80;;;2.00;;
52102;SDS011;38101;53.126;6.878;2022-09-09T13:24:05;3.85;;;1.85;;
52102;SDS011;38101;53.126;6.878;2022-09-09T13:26:53;7.40;;;2.40;;
52102;SDS011;38101;53.126;6.878;2022-09-09T13:29:21;4.95;;;2.00;;
52102;SDS011;38101;53.126;6.878;2022-09-09T13:31:46;4.38;;;1.92;;
52102;SDS011;38101;53.126;6.878;2022-09-09T13:34:22;4.88;;;2.10;;
52102;SDS011;38101;53.126;6.878;2022-09-09T13:36:56;4.72;;;1.90;;
52102;SDS011;38101;53.126;6.878;2022-09-09T13:39:30;5.25;;;2.03;;
52102;SDS011;38101;53.126;6.878;2022-09-09T13:41:59;4.72;;;1.88;;
52102;SDS011;38101;53.126;6.878;2022-09-09T13:44:35;5.22;;;2.00;;
52102;SDS011;38101;53.126;6.878;2022-09-09T13:47:04;5.40;;;2.00;;
52102;SDS011;38101;53.126;6.878;2022-09-09T13:49:42;3.55;;;1.95;;
52102;SDS011;38101;53.126;6.878;2022-09-09T13:52:14;5.07;;;2.08;;
52102;SDS011;38101;53.126;6.878;2022-09-09T13:54:42;5.30;;;2.10;;
52102;SDS011;38101;53.126;6.878;2022-09-09T13:57:18;4.05;;;1.80;;
52102;SDS011;38101;53.126;6.878;2022-09-09T14:02:11;5.47;;;2.25;;
52102;SDS011;38101;53.126;6.878;2022-09-09T14:04:38;4.20;;;2.17;;
52102;SDS011;38101;53.126;6.878;2022-09-09T14:07:07;3.85;;;1.80;;
52102;SDS011;38101;53.126;6.878;2022-09-09T14:09:38;6.40;;;2.08;;
52102;SDS011;38101;53.126;6.878;2022-09-09T14:12:05;4.10;;;2.00;;
52102;SDS011;38101;53.126;6.878;2022-09-09T14:14:34;6.90;;;2.10;;
52102;SDS011;38101;53.126;6.878;2022-09-09T14:16:59;3.85;;;1.90;;
52102;SDS011;38101;53.126;6.878;2022-09-09T14:19:25;5.00;;;1.95;;
52102;SDS011;38101;53.126;6.878;2022-09-09T14:21:51;5.40;;;2.05;;
52102;SDS011;38101;53.126;6.878;2022-09-09T14:24:17;6.50;;;2.28;;
52102;SDS011;38101;53.126;6.878;2022-09-09T14:26:43;5.38;;;2.15;;
52102;SDS011;38101;53.126;6.878;2022-09-09T14:29:08;4.28;;;1.95;;
52102;SDS011;38101;53.126;6.878;2022-09-09T14:31:34;5.30;;;1.83;;
52102;SDS011;38101;53.126;6.878;2022-09-09T14:34:00;5.05;;;2.00;;
52102;SDS011;38101;53.126;6.878;2022-09-09T14:36:26;3.90;;;1.73;;
52102;SDS011;38101;53.126;6.878;2022-09-09T14:38:52;5.28;;;1.80;;
52102;SDS011;38101;53.126;6.878;2022-09-09T14:41:18;4.38;;;2.03;;
52102;SDS011;38101;53.126;6.878;2022-09-09T14:43:45;25.75;;;4.22;;
52102;SDS011;38101;53.126;6.878;2022-09-09T14:46:12;23.75;;;4.82;;
52102;SDS011;38101;53.126;6.878;2022-09-09T14:48:39;12.52;;;3.50;;
52102;SDS011;38101;53.126;6.878;2022-09-09T14:51:06;6.22;;;2.20;;
52102;SDS011;38101;53.126;6.878;2022-09-09T14:53:44;4.45;;;2.17;;
52102;SDS011;38101;53.126;6.878;2022-09-09T14:56:12;5.28;;;2.30;;
52102;SDS011;38101;53.126;6.878;2022-09-09T14:58:42;4.97;;;2.05;;
52102;SDS011;38101;53.126;6.878;2022-09-09T15:01:13;4.18;;;2.13;;
52102;SDS011;38101;53.126;6.878;2022-09-09T15:03:41;5.47;;;2.45;;
52102;SDS011;38101;53.126;6.878;2022-09-09T15:06:12;7.88;;;2.75;;
52102;SDS011;38101;53.126;6.878;2022-09-09T15:08:39;14.63;;;3.40;;
52102;SDS011;38101;53.126;6.878;2022-09-09T15:11:08;12.70;;;3.40;;
52102;SDS011;38101;53.126;6.878;2022-09-09T15:13:35;10.25;;;2.40;;
52102;SDS011;38101;53.126;6.878;2022-09-09T15:18:51;6.45;;;1.85;;
52102;SDS011;38101;53.126;6.878;2022-09-09T15:21:20;2.47;;;1.48;;
52102;SDS011;38101;53.126;6.878;2022-09-09T15:23:47;2.97;;;1.48;;
52102;SDS011;38101;53.126;6.878;2022-09-09T15:26:14;4.25;;;1.52;;
52102;SDS011;38101;53.126;6.878;2022-09-09T15:28:40;2.03;;;1.33;;
52102;SDS011;38101;53.126;6.878;2022-09-09T15:31:12;3.00;;;1.27;;
52102;SDS011;38101;53.126;6.878;2022-09-09T15:33:39;4.38;;;1.30;;
52102;SDS011;38101;53.126;6.878;2022-09-09T15:36:39;1.35;;;0.90;;
52102;SDS011;38101;53.126;6.878;2022-09-09T15:38:59;1.45;;;1.10;;
52102;SDS011;38101;53.126;6.878;2022-09-09T15:41:26;1.83;;;1.10;;
52102;SDS011;38101;53.126;6.878;2022-09-09T15:43:53;1.63;;;1.05;;
52102;SDS011;38101;53.126;6.878;2022-09-09T15:48:51;3.00;;;1.30;;
52102;SDS011;38101;53.126;6.878;2022-09-09T15:51:17;1.75;;;1.20;;
52102;SDS011;38101;53.126;6.878;2022-09-09T15:53:43;1.35;;;1.05;;
52102;SDS011;38101;53.126;6.878;2022-09-09T15:56:09;1.77;;;1.10;;
52102;SDS011;38101;53.126;6.878;2022-09-09T15:58:36;2.42;;;1.00;;
52102;SDS011;38101;53.126;6.878;2022-09-09T16:01:05;1.67;;;1.25;;
52102;SDS011;38101;53.126;6.878;2022-09-09T16:03:35;3.55;;;1.52;;
52102;SDS011;38101;53.126;6.878;2022-09-09T16:06:02;1.38;;;1.10;;
52102;SDS011;38101;53.126;6.878;2022-09-09T16:08:33;3.38;;;1.10;;
52102;SDS011;38101;53.126;6.878;2022-09-09T16:11:04;4.15;;;1.20;;
52102;SDS011;38101;53.126;6.878;2022-09-09T16:13:40;1.17;;;0.93;;
52102;SDS011;38101;53.126;6.878;2022-09-09T16:16:08;1.40;;;1.20;;
52102;SDS011;38101;53.126;6.878;2022-09-09T16:18:38;2.50;;;1.85;;
52102;SDS011;38101;53.126;6.878;2022-09-09T16:21:08;2.97;;;1.52;;
52102;SDS011;38101;53.126;6.878;2022-09-09T16:23:43;3.35;;;1.80;;
52102;SDS011;38101;53.126;6.878;2022-09-09T16:26:10;2.35;;;1.60;;
52102;SDS011;38101;53.126;6.878;2022-09-09T16:28:38;3.42;;;1.70;;
52102;SDS011;38101;53.126;6.878;2022-09-09T16:31:07;3.13;;;1.70;;
52102;SDS011;38101;53.126;6.878;2022-09-09T16:33:35;6.28;;;1.92;;
52102;SDS011;38101;53.126;6.878;2022-09-09T16:36:08;3.97;;;1.88;;
52102;SDS011;38101;53.126;6.878;2022-09-09T16:38:36;2.40;;;1.83;;
52102;SDS011;38101;53.126;6.878;2022-09-09T16:41:02;4.07;;;2.00;;
52102;SDS011;38101;53.126;6.878;2022-09-09T16:43:31;3.13;;;1.85;;
52102;SDS011;38101;53.126;6.878;2022-09-09T16:46:03;4.18;;;1.90;;
52102;SDS011;38101;53.126;6.878;2022-09-09T16:48:37;4.07;;;2.15;;
52102;SDS011;38101;53.126;6.878;2022-09-09T16:51:04;4.20;;;2.20;;
52102;SDS011;38101;53.126;6.878;2022-09-09T16:53:36;3.15;;;1.60;;
52102;SDS011;38101;53.126;6.878;2022-09-09T16:56:08;4.28;;;1.90;;
52102;SDS011;38101;53.126;6.878;2022-09-09T16:58:36;5.68;;;2.03;;
52102;SDS011;38101;53.126;6.878;2022-09-09T17:01:02;2.72;;;1.88;;
52102;SDS011;38101;53.126;6.878;2022-09-09T17:03:28;4.50;;;1.92;;
52102;SDS011;38101;53.126;6.878;2022-09-09T17:05:54;3.22;;;1.90;;
52102;SDS011;38101;53.126;6.878;2022-09-09T17:08:20;3.88;;;2.10;;
52102;SDS011;38101;53.126;6.878;2022-09-09T17:10:46;3.95;;;2.17;;
52102;SDS011;38101;53.126;6.878;2022-09-09T17:13:12;3.35;;;2.17;;
52102;SDS011;38101;53.126;6.878;2022-09-09T17:15:42;4.78;;;2.20;;
52102;SDS011;38101;53.126;6.878;2022-09-09T17:18:11;3.45;;;2.25;;
52102;SDS011;38101;53.126;6.878;2022-09-09T17:20:40;5.35;;;2.45;;
52102;SDS011;38101;53.126;6.878;2022-09-09T17:23:07;2.92;;;2.10;;
52102;SDS011;38101;53.126;6.878;2022-09-09T17:25:34;4.28;;;2.28;;
52102;SDS011;38101;53.126;6.878;2022-09-09T17:28:00;4.22;;;2.03;;
52102;SDS011;38101;53.126;6.878;2022-09-09T17:30:27;3.47;;;2.17;;
52102;SDS011;38101;53.126;6.878;2022-09-09T17:32:53;4.03;;;2.20;;
52102;SDS011;38101;53.126;6.878;2022-09-09T17:35:18;6.53;;;2.50;;
52102;SDS011;38101;53.126;6.878;2022-09-09T17:37:44;7.30;;;2.40;;
52102;SDS011;38101;53.126;6.878;2022-09-09T17:40:10;4.50;;;2.08;;
52102;SDS011;38101;53.126;6.878;2022-09-09T17:42:36;3.85;;;1.95;;
52102;SDS011;38101;53.126;6.878;2022-09-09T17:45:02;3.88;;;2.50;;
52102;SDS011;38101;53.126;6.878;2022-09-09T17:47:28;4.35;;;1.80;;
52102;SDS011;38101;53.126;6.878;2022-09-09T17:49:55;4.03;;;1.90;;
52102;SDS011;38101;53.126;6.878;2022-09-09T17:52:22;5.10;;;2.20;;
52102;SDS011;38101;53.126;6.878;2022-09-09T17:54:48;4.68;;;2.15;;
52102;SDS011;38101;53.126;6.878;2022-09-09T17:57:14;4.60;;;2.60;;
52102;SDS011;38101;53.126;6.878;2022-09-09T17:59:42;3.55;;;2.35;;
52102;SDS011;38101;53.126;6.878;2022-09-09T18:02:08;4.30;;;2.60;;
52102;SDS011;38101;53.126;6.878;2022-09-09T18:04:36;3.38;;;2.25;;
52102;SDS011;38101;53.126;6.878;2022-09-09T18:07:02;5.22;;;2.50;;
52102;SDS011;38101;53.126;6.878;2022-09-09T18:09:27;9.05;;;6.38;;
52102;SDS011;38101;53.126;6.878;2022-09-09T18:11:54;8.00;;;7.13;;
52102;SDS011;38101;53.126;6.878;2022-09-09T18:14:30;8.57;;;6.50;;
52102;SDS011;38101;53.126;6.878;2022-09-09T18:16:57;6.93;;;5.70;;
52102;SDS011;38101;53.126;6.878;2022-09-09T18:19:24;4.75;;;3.40;;
52102;SDS011;38101;53.126;6.878;2022-09-09T18:21:52;3.83;;;2.78;;
52102;SDS011;38101;53.126;6.878;2022-09-09T18:24:18;5.28;;;2.92;;
52102;SDS011;38101;53.126;6.878;2022-09-09T18:26:45;5.00;;;2.65;;
52102;SDS011;38101;53.126;6.878;2022-09-09T18:29:14;4.25;;;2.67;;
52102;SDS011;38101;53.126;6.878;2022-09-09T18:31:44;5.07;;;2.80;;
52102;SDS011;38101;53.126;6.878;2022-09-09T18:34:11;4.88;;;2.50;;
52102;SDS011;38101;53.126;6.878;2022-09-09T18:36:43;4.07;;;2.80;;
52102;SDS011;38101;53.126;6.878;2022-09-09T18:39:14;3.88;;;2.55;;
52102;SDS011;38101;53.126;6.878;2022-09-09T18:41:43;4.40;;;2.65;;
52102;SDS011;38101;53.126;6.878;2022-09-09T18:44:15;4.55;;;2.65;;
52102;SDS011;38101;53.126;6.878;2022-09-09T18:46:43;5.05;;;2.60;;
52102;SDS011;38101;53.126;6.878;2022-09-09T18:49:09;5.22;;;3.22;;
52102;SDS011;38101;53.126;6.878;2022-09-09T18:51:36;7.00;;;6.05;;
52102;SDS011;38101;53.126;6.878;2022-09-09T18:54:10;10.60;;;6.53;;
52102;SDS011;38101;53.126;6.878;2022-09-09T18:56:37;8.77;;;5.03;;
52102;SDS011;38101;53.126;6.878;2022-09-09T18:59:04;11.48;;;6.75;;
52102;SDS011;38101;53.126;6.878;2022-09-09T19:01:31;12.75;;;9.50;;
52102;SDS011;38101;53.126;6.878;2022-09-09T19:03:59;16.73;;;9.60;;
52102;SDS011;38101;53.126;6.878;2022-09-09T19:06:27;14.27;;;6.72;;
52102;SDS011;38101;53.126;6.878;2022-09-09T19:08:54;9.55;;;4.72;;
52102;SDS011;38101;53.126;6.878;2022-09-09T19:11:24;7.20;;;3.55;;
52102;SDS011;38101;53.126;6.878;2022-09-09T19:13:55;5.95;;;3.65;;
52102;SDS011;38101;53.126;6.878;2022-09-09T19:16:25;8.20;;;3.72;;
52102;SDS011;38101;53.126;6.878;2022-09-09T19:18:53;6.72;;;3.50;;
52102;SDS011;38101;53.126;6.878;2022-09-09T19:21:23;8.50;;;4.07;;
52102;SDS011;38101;53.126;6.878;2022-09-09T19:23:54;10.63;;;4.45;;
52102;SDS011;38101;53.126;6.878;2022-09-09T19:26:26;7.50;;;5.10;;
52102;SDS011;38101;53.126;6.878;2022-09-09T19:28:53;6.25;;;4.30;;
52102;SDS011;38101;53.126;6.878;2022-09-09T19:31:19;4.05;;;2.72;;
52102;SDS011;38101;53.126;6.878;2022-09-09T19:33:46;5.55;;;2.70;;
52102;SDS011;38101;53.126;6.878;2022-09-09T19:36:15;3.83;;;2.58;;
52102;SDS011;38101;53.126;6.878;2022-09-09T19:38:43;5.35;;;2.97;;
52102;SDS011;38101;53.126;6.878;2022-09-09T19:41:17;4.97;;;3.08;;
52102;SDS011;38101;53.126;6.878;2022-09-09T19:43:44;5.25;;;2.88;;
52102;SDS011;38101;53.126;6.878;2022-09-09T19:46:11;4.68;;;2.90;;
52102;SDS011;38101;53.126;6.878;2022-09-09T19:48:39;4.38;;;3.00;;
52102;SDS011;38101;53.126;6.878;2022-09-09T19:51:07;5.57;;;3.13;;
52102;SDS011;38101;53.126;6.878;2022-09-09T19:54:03;4.95;;;3.50;;
52102;SDS011;38101;53.126;6.878;2022-09-09T19:56:33;4.95;;;3.35;;
52102;SDS011;38101;53.126;6.878;2022-09-09T19:59:00;6.60;;;3.58;;
52102;SDS011;38101;53.126;6.878;2022-09-09T20:01:28;5.60;;;3.30;;
52102;SDS011;38101;53.126;6.878;2022-09-09T20:03:56;5.38;;;3.55;;
52102;SDS011;38101;53.126;6.878;2022-09-09T20:06:24;5.40;;;3.78;;
52102;SDS011;38101;53.126;6.878;2022-09-09T20:08:53;6.70;;;3.83;;
52102;SDS011;38101;53.126;6.878;2022-09-09T20:11:20;6.75;;;3.88;;
52102;SDS011;38101;53.126;6.878;2022-09-09T20:13:46;6.18;;;3.90;;
52102;SDS011;38101;53.126;6.878;2022-09-09T20:16:19;6.22;;;3.55;;
52102;SDS011;38101;53.126;6.878;2022-09-09T20:18:50;7.60;;;4.28;;
52102;SDS011;38101;53.126;6.878;2022-09-09T20:21:25;5.18;;;4.03;;
52102;SDS011;38101;53.126;6.878;2022-09-09T20:23:53;5.53;;;3.92;;
52102;SDS011;38101;53.126;6.878;2022-09-09T20:26:21;7.32;;;4.47;;
52102;SDS011;38101;53.126;6.878;2022-09-09T20:28:50;6.82;;;4.50;;
52102;SDS011;38101;53.126;6.878;2022-09-09T20:31:27;5.20;;;4.18;;
52102;SDS011;38101;53.126;6.878;2022-09-09T20:33:54;7.65;;;4.38;;
52102;SDS011;38101;53.126;6.878;2022-09-09T20:36:22;5.72;;;4.63;;
52102;SDS011;38101;53.126;6.878;2022-09-09T20:38:54;6.45;;;4.97;;
52102;SDS011;38101;53.126;6.878;2022-09-09T20:41:23;8.05;;;4.55;;
52102;SDS011;38101;53.126;6.878;2022-09-09T20:43:56;6.35;;;4.25;;
52102;SDS011;38101;53.126;6.878;2022-09-09T20:46:26;6.22;;;4.40;;
52102;SDS011;38101;53.126;6.878;2022-09-09T20:48:57;7.90;;;5.05;;
52102;SDS011;38101;53.126;6.878;2022-09-09T20:51:24;8.30;;;5.03;;
52102;SDS011;38101;53.126;6.878;2022-09-09T20:53:57;5.85;;;4.38;;
52102;SDS011;38101;53.126;6.878;2022-09-09T20:56:35;7.70;;;4.80;;
52102;SDS011;38101;53.126;6.878;2022-09-09T20:59:04;7.85;;;4.70;;
52102;SDS011;38101;53.126;6.878;2022-09-09T21:01:31;8.10;;;5.03;;
52102;SDS011;38101;53.126;6.878;2022-09-09T21:03:56;9.43;;;5.22;;
52102;SDS011;38101;53.126;6.878;2022-09-09T21:06:24;5.50;;;4.60;;
52102;SDS011;38101;53.126;6.878;2022-09-09T21:08:50;7.30;;;4.93;;
52102;SDS011;38101;53.126;6.878;2022-09-09T21:11:16;7.25;;;4.90;;
52102;SDS011;38101;53.126;6.878;2022-09-09T21:13:41;6.50;;;4.78;;
52102;SDS011;38101;53.126;6.878;2022-09-09T21:16:09;7.03;;;5.13;;
52102;SDS011;38101;53.126;6.878;2022-09-09T21:18:39;5.97;;;4.70;;
52102;SDS011;38101;53.126;6.878;2022-09-09T21:21:10;6.25;;;4.82;;
52102;SDS011;38101;53.126;6.878;2022-09-09T21:23:37;5.90;;;5.18;;
52102;SDS011;38101;53.126;6.878;2022-09-09T21:26:03;6.28;;;4.80;;
52102;SDS011;38101;53.126;6.878;2022-09-09T21:28:29;6.65;;;5.13;;
52102;SDS011;38101;53.126;6.878;2022-09-09T21:30:55;7.13;;;5.30;;
52102;SDS011;38101;53.126;6.878;2022-09-09T21:33:22;9.30;;;4.95;;
52102;SDS011;38101;53.126;6.878;2022-09-09T21:35:49;6.90;;;5.20;;
52102;SDS011;38101;53.126;6.878;2022-09-09T21:38:16;5.88;;;5.28;;
52102;SDS011;38101;53.126;6.878;2022-09-09T21:40:44;6.20;;;5.30;;
52102;SDS011;38101;53.126;6.878;2022-09-09T21:43:10;8.02;;;5.10;;
52102;SDS011;38101;53.126;6.878;2022-09-09T21:45:38;8.38;;;5.65;;
52102;SDS011;38101;53.126;6.878;2022-09-09T21:48:05;8.05;;;5.70;;
52102;SDS011;38101;53.126;6.878;2022-09-09T21:50:38;8.48;;;5.50;;
52102;SDS011;38101;53.126;6.878;2022-09-09T21:53:06;8.82;;;5.88;;
52102;SDS011;38101;53.126;6.878;2022-09-09T21:55:34;7.80;;;5.65;;
52102;SDS011;38101;53.126;6.878;2022-09-09T21:58:04;7.32;;;5.75;;
52102;SDS011;38101;53.126;6.878;2022-09-09T22:00:30;7.60;;;5.65;;
52102;SDS011;38101;53.126;6.878;2022-09-09T22:02:57;7.20;;;5.80;;
52102;SDS011;38101;53.126;6.878;2022-09-09T22:05:23;8.20;;;5.80;;
52102;SDS011;38101;53.126;6.878;2022-09-09T22:07:49;7.13;;;5.85;;
52102;SDS011;38101;53.126;6.878;2022-09-09T22:10:17;8.00;;;5.88;;
52102;SDS011;38101;53.126;6.878;2022-09-09T22:12:44;8.02;;;5.43;;
52102;SDS011;38101;53.126;6.878;2022-09-09T22:15:09;6.55;;;5.88;;
52102;SDS011;38101;53.126;6.878;2022-09-09T22:17:35;8.45;;;5.35;;
52102;SDS011;38101;53.126;6.878;2022-09-09T22:20:01;6.00;;;5.18;;
52102;SDS011;38101;53.126;6.878;2022-09-09T22:22:26;9.18;;;6.10;;
52102;SDS011;38101;53.126;6.878;2022-09-09T22:24:52;8.15;;;6.07;;